createdAt,value
2022-12-20T00:00:20.814Z,52.95
2022-12-20T00:02:49.041Z,45.65
2022-12-20T00:05:17.292Z,57.55
2022-12-20T00:07:45.413Z,64.03
2022-12-20T00:10:13.546Z,53.80
2022-12-20T00:12:41.587Z,48.88
2022-12-20T00:15:10.338Z,77.22
2022-12-20T00:17:39.811Z,53.05
2022-12-20T00:20:09.418Z,47.40
2022-12-20T00:22:37.568Z,50.30
2022-12-20T00:25:06.477Z,48.38
2022-12-20T00:27:34.570Z,33.28
2022-12-20T00:30:02.593Z,51.03
2022-12-20T00:32:30.702Z,36.85
2022-12-20T00:35:00.089Z,49.85
2022-12-20T00:37:29.241Z,57.03
2022-12-20T00:39:57.308Z,50.20
2022-12-20T00:42:25.351Z,49.65
2022-12-20T00:44:53.404Z,74.70
2022-12-20T00:47:21.525Z,40.90
2022-12-20T00:49:49.878Z,39.72
2022-12-20T00:52:19.450Z,36.63
2022-12-20T00:54:47.538Z,34.92
2022-12-20T00:57:15.559Z,34.88
2022-12-20T00:59:43.568Z,38.33
2022-12-20T01:02:11.729Z,36.13
2022-12-20T01:04:39.872Z,44.28
2022-12-20T01:07:07.998Z,41.72
2022-12-20T01:09:37.349Z,41.67
2022-12-20T01:12:05.536Z,36.72
2022-12-20T01:14:33.550Z,31.48
2022-12-20T01:17:02.269Z,37.88
2022-12-20T01:19:30.454Z,38.25
2022-12-20T01:21:58.441Z,98.60
2022-12-20T01:24:26.595Z,36.55
2022-12-20T01:26:56.058Z,48.53
2022-12-20T01:29:24.192Z,39.60
2022-12-20T01:31:53.798Z,37.55
2022-12-20T01:34:21.946Z,57.30
2022-12-20T01:36:50.506Z,40.22
2022-12-20T01:39:19.162Z,34.80
2022-12-20T01:41:47.500Z,42.58
2022-12-20T01:44:56.289Z,33.13
2022-12-20T01:47:26.183Z,34.67
2022-12-20T01:49:57.710Z,41.88
2022-12-20T01:52:30.330Z,40.05
2022-12-20T01:55:05.270Z,41.35
2022-12-20T01:57:39.346Z,42.60
2022-12-20T02:00:10.852Z,51.22
2022-12-20T02:02:42.629Z,54.13
2022-12-20T02:05:14.572Z,110.55
2022-12-20T02:07:48.475Z,69.20
2022-12-20T02:10:18.796Z,51.65
2022-12-20T02:12:48.323Z,80.95
2022-12-20T02:15:33.187Z,41.78
2022-12-20T02:18:20.308Z,34.28
2022-12-20T02:21:21.113Z,43.45
2022-12-20T02:24:20.531Z,48.78
2022-12-20T02:27:25.840Z,45.55
2022-12-20T02:30:12.071Z,44.00
2022-12-20T02:32:45.596Z,44.50
2022-12-20T02:35:20.207Z,50.38
2022-12-20T02:37:50.669Z,45.50
2022-12-20T02:40:22.831Z,56.97
2022-12-20T02:42:54.692Z,39.42
2022-12-20T02:45:27.576Z,61.40
2022-12-20T02:48:00.918Z,33.55
2022-12-20T02:50:35.827Z,41.03
2022-12-20T02:53:04.296Z,34.08
2022-12-20T02:55:42.128Z,31.10
2022-12-20T02:58:18.709Z,62.33
2022-12-20T03:00:50.411Z,42.47
2022-12-20T03:03:25.220Z,43.88
2022-12-20T03:05:56.498Z,47.63
2022-12-20T03:08:25.179Z,91.95
2022-12-20T03:10:54.700Z,38.55
2022-12-20T03:13:24.091Z,45.08
2022-12-20T03:15:58.925Z,35.55
2022-12-20T03:18:27.297Z,30.70
2022-12-20T03:20:55.474Z,32.80
2022-12-20T03:23:23.561Z,38.83
2022-12-20T03:25:51.680Z,40.42
2022-12-20T03:28:31.115Z,52.08
2022-12-20T03:31:00.643Z,41.97
2022-12-20T03:33:29.228Z,55.72
2022-12-20T03:35:59.401Z,32.08
2022-12-20T03:38:27.442Z,39.47
2022-12-20T03:40:55.468Z,41.05
2022-12-20T03:43:24.024Z,50.97
2022-12-20T03:45:52.388Z,36.03
2022-12-20T03:48:23.568Z,57.25
2022-12-20T03:50:51.652Z,49.45
2022-12-20T03:53:19.678Z,52.05
2022-12-20T03:55:47.808Z,60.08
2022-12-20T03:58:16.931Z,58.55
2022-12-20T04:00:44.978Z,57.08
2022-12-20T04:03:32.735Z,40.08
2022-12-20T04:06:00.824Z,37.45
2022-12-20T04:08:29.589Z,44.33
2022-12-20T04:11:18.491Z,43.30
2022-12-20T04:14:06.921Z,52.17
2022-12-20T04:16:35.394Z,46.92
2022-12-20T04:19:05.004Z,49.20
2022-12-20T04:21:38.612Z,33.33
2022-12-20T04:24:07.275Z,45.58
2022-12-20T04:26:49.231Z,40.08
2022-12-20T04:29:18.221Z,41.30
2022-12-20T04:31:47.388Z,57.47
2022-12-20T04:34:17.381Z,41.80
2022-12-20T04:36:45.538Z,54.08
2022-12-20T04:39:20.291Z,42.63
2022-12-20T04:42:17.338Z,37.35
2022-12-20T04:44:45.714Z,43.45
2022-12-20T04:47:16.154Z,54.65
2022-12-20T04:49:46.352Z,38.80
2022-12-20T04:52:31.873Z,59.78
2022-12-20T04:54:59.932Z,46.83
2022-12-20T04:57:31.904Z,39.42
2022-12-20T05:00:00.729Z,45.08
2022-12-20T05:02:29.251Z,46.10
2022-12-20T05:05:05.386Z,71.30
2022-12-20T05:07:39.400Z,39.38
2022-12-20T05:10:08.403Z,49.67
2022-12-20T05:12:36.583Z,41.67
2022-12-20T05:15:07.454Z,48.63
2022-12-20T05:17:35.816Z,37.45
2022-12-20T05:20:07.859Z,44.78
2022-12-20T05:22:53.604Z,50.70
2022-12-20T05:25:39.082Z,60.22
2022-12-20T05:28:09.054Z,50.28
2022-12-20T05:30:38.501Z,55.75
2022-12-20T05:33:07.037Z,48.53
2022-12-20T05:35:36.828Z,54.13
2022-12-20T05:38:09.184Z,60.75
2022-12-20T05:40:38.054Z,50.40
2022-12-20T05:43:06.553Z,50.10
2022-12-20T05:45:47.263Z,58.25
2022-12-20T05:48:17.850Z,50.88
2022-12-20T05:50:48.178Z,50.25
2022-12-20T05:53:42.520Z,65.70
2022-12-20T05:56:10.687Z,44.08
2022-12-20T05:58:40.305Z,58.88
2022-12-20T06:01:10.328Z,59.50
2022-12-20T06:03:41.084Z,52.35
2022-12-20T06:06:17.116Z,42.00
2022-12-20T06:08:48.043Z,42.40
2022-12-20T06:11:29.373Z,36.92
2022-12-20T06:14:04.437Z,45.60
2022-12-20T06:16:32.883Z,45.00
2022-12-20T06:19:01.363Z,47.60
2022-12-20T06:21:32.078Z,44.42
2022-12-20T06:24:01.521Z,50.20
2022-12-20T06:26:35.982Z,52.22
2022-12-20T06:29:07.123Z,46.55
2022-12-20T06:31:39.724Z,47.30
2022-12-20T06:34:36.288Z,54.42
2022-12-20T06:37:05.674Z,44.42
2022-12-20T06:39:35.880Z,46.05
2022-12-20T06:42:06.903Z,68.00
2022-12-20T06:44:36.595Z,49.78
2022-12-20T06:47:04.982Z,76.40
2022-12-20T06:49:33.098Z,47.05
2022-12-20T06:52:02.249Z,139.93
2022-12-20T06:54:41.982Z,44.13
2022-12-20T06:57:10.437Z,51.17
2022-12-20T06:59:39.473Z,56.28
2022-12-20T07:02:09.117Z,35.83
2022-12-20T07:04:37.775Z,77.40
2022-12-20T07:07:06.019Z,50.33
2022-12-20T07:09:34.281Z,54.95
2022-12-20T07:12:03.590Z,54.13
2022-12-20T07:14:31.688Z,39.15
2022-12-20T07:16:59.792Z,47.88
2022-12-20T07:19:28.037Z,46.67
2022-12-20T07:21:56.492Z,53.65
2022-12-20T07:24:24.660Z,36.55
2022-12-20T07:26:54.129Z,40.45
2022-12-20T07:29:23.484Z,41.10
2022-12-20T07:31:51.497Z,39.60
2022-12-20T07:34:19.845Z,46.38
2022-12-20T07:36:47.904Z,63.95
2022-12-20T07:39:16.065Z,38.72
2022-12-20T07:41:44.085Z,40.67
2022-12-20T07:44:17.397Z,45.53
2022-12-20T07:46:46.789Z,39.95
2022-12-20T07:49:15.207Z,45.63
2022-12-20T07:51:48.059Z,47.80
2022-12-20T07:54:19.786Z,42.97
2022-12-20T07:56:51.325Z,41.00
2022-12-20T07:59:29.491Z,41.20
2022-12-20T08:02:04.316Z,42.88
2022-12-20T08:04:34.745Z,87.30
2022-12-20T08:07:03.882Z,50.88
2022-12-20T08:09:36.114Z,57.35
2022-12-20T08:12:04.484Z,57.78
2022-12-20T08:14:33.145Z,50.22
2022-12-20T08:17:02.611Z,92.28
2022-12-20T08:19:32.960Z,47.97
2022-12-20T08:22:01.721Z,44.97
2022-12-20T08:24:29.753Z,59.47
2022-12-20T08:26:57.890Z,49.10
2022-12-20T08:29:25.935Z,44.90
2022-12-20T08:31:53.933Z,47.10
2022-12-20T08:34:23.277Z,45.45
2022-12-20T08:36:52.054Z,52.83
2022-12-20T08:39:20.367Z,47.50
2022-12-20T08:41:48.507Z,47.08
2022-12-20T08:44:16.508Z,46.83
2022-12-20T08:46:44.534Z,52.17
2022-12-20T08:49:12.652Z,54.42
2022-12-20T08:51:42.087Z,50.70
2022-12-20T08:54:10.245Z,48.75
2022-12-20T08:56:38.337Z,52.15
2022-12-20T08:59:06.830Z,54.33
2022-12-20T09:01:34.933Z,62.72
2022-12-20T09:04:03.135Z,61.63
2022-12-20T09:06:31.194Z,54.10
2022-12-20T09:09:01.393Z,65.78
2022-12-20T09:11:29.805Z,57.70
2022-12-20T09:13:59.522Z,68.78
2022-12-20T09:16:29.441Z,63.53
2022-12-20T09:19:04.738Z,67.45
2022-12-20T09:21:34.375Z,55.00
2022-12-20T09:24:03.767Z,49.90
2022-12-20T09:26:32.374Z,41.85
2022-12-20T09:29:01.963Z,54.47
2022-12-20T09:31:30.171Z,38.85
2022-12-20T09:33:59.355Z,39.80
2022-12-20T09:36:29.663Z,39.70
2022-12-20T09:38:58.568Z,39.30
2022-12-20T09:41:37.061Z,42.67
2022-12-20T09:44:12.278Z,40.40
2022-12-20T09:46:41.019Z,36.63
2022-12-20T09:49:15.071Z,44.35
2022-12-20T09:52:12.196Z,41.50
2022-12-20T09:54:49.326Z,44.75
2022-12-20T09:57:28.505Z,42.88
2022-12-20T09:59:57.868Z,40.38
2022-12-20T10:02:56.612Z,38.70
2022-12-20T10:05:19.809Z,42.05
2022-12-20T10:07:55.691Z,46.22
2022-12-20T10:10:40.912Z,48.85
2022-12-20T10:13:24.591Z,47.88
2022-12-20T10:15:57.524Z,52.58
2022-12-20T10:18:50.951Z,49.53
2022-12-20T10:21:25.351Z,51.42
2022-12-20T10:24:02.004Z,52.20
2022-12-20T10:26:31.003Z,49.70
2022-12-20T10:29:00.436Z,50.20
2022-12-20T10:31:28.759Z,46.92
2022-12-20T10:33:57.623Z,51.35
2022-12-20T10:36:27.725Z,41.85
2022-12-20T10:38:57.848Z,46.60
2022-12-20T10:41:27.700Z,67.93
2022-12-20T10:44:00.862Z,53.33
2022-12-20T10:46:41.036Z,46.40
2022-12-20T10:49:27.837Z,38.15
2022-12-20T10:51:58.308Z,49.33
2022-12-20T10:54:31.538Z,38.35
2022-12-20T10:57:01.885Z,34.72
2022-12-20T10:59:35.724Z,47.55
2022-12-20T11:02:21.594Z,38.38
2022-12-20T11:05:00.740Z,37.67
2022-12-20T11:07:31.164Z,34.45
2022-12-20T11:10:00.644Z,43.75
2022-12-20T11:12:28.914Z,41.75
2022-12-20T11:15:34.106Z,37.35
2022-12-20T11:18:07.074Z,38.28
2022-12-20T11:20:42.228Z,40.10
2022-12-20T11:23:19.819Z,41.97
2022-12-20T11:26:09.088Z,36.03
2022-12-20T11:28:50.664Z,40.78
2022-12-20T11:31:32.297Z,35.05
2022-12-20T11:34:18.752Z,29.98
2022-12-20T11:37:04.252Z,44.70
2022-12-20T11:39:39.128Z,40.00
2022-12-20T11:42:15.771Z,45.08
2022-12-20T11:45:03.355Z,47.50
2022-12-20T11:47:55.725Z,49.78
2022-12-20T11:50:46.121Z,41.38
2022-12-20T11:53:21.128Z,36.42
2022-12-20T11:55:53.095Z,42.05
2022-12-20T11:58:26.602Z,45.05
2022-12-20T12:00:58.228Z,43.15
2022-12-20T12:03:34.798Z,43.47
2022-12-20T12:06:07.212Z,41.22
2022-12-20T12:08:42.303Z,43.22
2022-12-20T12:12:04.622Z,44.33
2022-12-20T12:14:08.143Z,43.80
2022-12-20T12:16:40.412Z,39.25
2022-12-20T12:19:13.243Z,43.25
2022-12-20T12:21:45.022Z,41.08
2022-12-20T12:24:22.814Z,43.95
2022-12-20T12:26:51.078Z,43.13
2022-12-20T12:29:21.217Z,43.58
2022-12-20T12:31:55.695Z,45.80
2022-12-20T12:34:48.196Z,46.42
2022-12-20T12:37:41.022Z,46.13
2022-12-20T12:40:58.849Z,50.47
2022-12-20T12:43:48.123Z,39.17
2022-12-20T12:46:20.288Z,45.05
2022-12-20T12:48:55.600Z,42.80
2022-12-20T12:51:30.870Z,37.10
2022-12-20T12:54:15.109Z,27.85
2022-12-20T12:56:46.890Z,34.65
2022-12-20T12:59:48.320Z,36.58
2022-12-20T13:02:33.984Z,33.17
2022-12-20T13:05:25.519Z,43.47
2022-12-20T13:07:55.572Z,36.33
2022-12-20T13:10:57.725Z,25.15
2022-12-20T13:13:26.004Z,19.45
2022-12-20T13:17:02.394Z,21.40
2022-12-20T13:19:17.743Z,19.42
2022-12-20T13:21:48.240Z,21.95
2022-12-20T13:24:58.145Z,19.42
2022-12-20T13:27:35.384Z,23.67
2022-12-20T13:30:25.965Z,24.58
2022-12-20T13:33:22.929Z,21.17
2022-12-20T13:36:06.214Z,23.50
2022-12-20T13:38:56.672Z,24.75
2022-12-20T13:41:35.930Z,25.90
2022-12-20T13:44:29.543Z,22.70
2022-12-20T13:47:02.684Z,22.40
2022-12-20T13:49:35.621Z,26.95
2022-12-20T13:52:28.288Z,24.67
2022-12-20T13:55:00.549Z,27.90
2022-12-20T13:57:33.165Z,47.75
2022-12-20T14:00:07.458Z,40.90
2022-12-20T14:02:43.225Z,38.45
2022-12-20T14:05:19.119Z,36.33
2022-12-20T14:07:49.472Z,36.63
2022-12-20T14:10:21.897Z,38.50
2022-12-20T14:12:52.990Z,34.75
2022-12-20T14:15:30.165Z,31.83
2022-12-20T14:17:58.753Z,28.27
2022-12-20T14:20:31.509Z,34.85
2022-12-20T14:23:05.872Z,31.40
2022-12-20T14:25:38.970Z,34.47
2022-12-20T14:28:26.511Z,32.78
2022-12-20T14:30:56.285Z,27.75
2022-12-20T14:33:32.100Z,32.58
2022-12-20T14:36:09.830Z,31.77
2022-12-20T14:38:39.406Z,28.23
2022-12-20T14:41:33.441Z,34.35
2022-12-20T14:44:14.290Z,50.22
2022-12-20T14:46:49.323Z,44.35
2022-12-20T14:49:22.809Z,31.85
2022-12-20T14:51:51.465Z,36.60
2022-12-20T14:54:56.744Z,37.65
2022-12-20T14:57:18.580Z,29.98
2022-12-20T14:59:59.112Z,32.50
2022-12-20T15:02:36.685Z,28.20
2022-12-20T15:05:10.659Z,27.67
2022-12-20T15:07:42.231Z,25.05
2022-12-20T15:10:10.292Z,27.30
2022-12-20T15:12:42.202Z,30.33
2022-12-20T15:15:30.935Z,25.42
2022-12-20T15:17:58.931Z,26.73
2022-12-20T15:20:27.063Z,24.40
2022-12-20T15:22:55.173Z,28.17
2022-12-20T15:25:23.214Z,21.63
2022-12-20T15:27:51.399Z,23.60
2022-12-20T15:30:21.149Z,25.63
2022-12-20T15:32:55.750Z,27.80
2022-12-20T15:35:25.411Z,28.52
2022-12-20T15:37:53.654Z,30.40
2022-12-20T15:40:21.684Z,29.55
2022-12-20T15:42:49.709Z,37.38
2022-12-20T15:45:17.921Z,49.00
2022-12-20T15:47:47.324Z,38.17
2022-12-20T15:50:15.434Z,73.93
2022-12-20T15:52:44.295Z,46.20
2022-12-20T15:55:12.908Z,31.98
2022-12-20T15:57:41.152Z,42.58
2022-12-20T16:00:13.309Z,50.53
2022-12-20T16:02:41.720Z,30.90
2022-12-20T16:05:14.468Z,47.45
2022-12-20T16:07:42.525Z,30.38
2022-12-20T16:10:14.860Z,48.05
2022-12-20T16:12:43.587Z,37.17
2022-12-20T16:15:21.874Z,46.10
2022-12-20T16:17:50.166Z,38.15
2022-12-20T16:20:20.219Z,27.45
2022-12-20T16:22:49.590Z,27.98
2022-12-20T16:25:26.011Z,30.95
2022-12-20T16:27:54.188Z,24.67
2022-12-20T16:30:22.397Z,20.10
2022-12-20T16:32:50.713Z,26.65
2022-12-20T16:35:29.352Z,22.85
2022-12-20T16:37:58.656Z,23.48
2022-12-20T16:40:28.381Z,21.42
2022-12-20T16:42:57.567Z,25.83
2022-12-20T16:45:28.371Z,22.73
2022-12-20T16:47:57.251Z,16.90
2022-12-20T16:50:27.738Z,18.33
2022-12-20T16:52:56.528Z,19.48
2022-12-20T16:55:26.963Z,23.23
2022-12-20T16:57:55.393Z,20.58
2022-12-20T17:00:25.677Z,22.27
2022-12-20T17:02:54.311Z,14.02
2022-12-20T17:05:29.297Z,20.50
2022-12-20T17:07:58.578Z,22.23
2022-12-20T17:10:27.395Z,23.40
2022-12-20T17:12:55.979Z,18.20
2022-12-20T17:15:26.064Z,16.67
2022-12-20T17:17:54.519Z,15.80
2022-12-20T17:20:24.722Z,17.65
2022-12-20T17:22:55.879Z,12.98
2022-12-20T17:25:26.989Z,15.50
2022-12-20T17:27:55.522Z,17.38
2022-12-20T17:30:24.870Z,13.30
2022-12-20T17:32:53.377Z,12.70
2022-12-20T17:35:28.208Z,17.08
2022-12-20T17:37:58.447Z,21.42
2022-12-20T17:40:28.581Z,16.25
2022-12-20T17:42:56.972Z,18.10
2022-12-20T17:45:31.040Z,16.17
2022-12-20T17:48:00.202Z,22.92
2022-12-20T17:50:28.592Z,20.15
2022-12-20T17:52:57.952Z,19.30
2022-12-20T17:55:27.906Z,26.80
2022-12-20T17:57:56.771Z,16.70
2022-12-20T18:00:31.821Z,19.42
2022-12-20T18:03:04.791Z,21.38
2022-12-20T18:05:32.912Z,18.17
2022-12-20T18:08:02.337Z,14.15
2022-12-20T18:10:30.365Z,16.38
2022-12-20T18:12:58.377Z,19.20
2022-12-20T18:15:26.383Z,17.10
2022-12-20T18:17:54.397Z,13.50
2022-12-20T18:20:23.147Z,11.80
2022-12-20T18:22:51.269Z,10.77
2022-12-20T18:25:20.736Z,14.55
2022-12-20T18:27:48.791Z,19.63
2022-12-20T18:30:17.787Z,16.65
2022-12-20T18:32:45.841Z,15.05
2022-12-20T18:35:13.863Z,17.45
2022-12-20T18:37:41.954Z,18.83
2022-12-20T18:40:10.776Z,17.90
2022-12-20T18:42:40.293Z,14.88
2022-12-20T18:45:11.211Z,13.48
2022-12-20T18:47:39.273Z,15.02
2022-12-20T18:50:11.734Z,9.85
2022-12-20T18:52:42.320Z,14.25
2022-12-20T18:55:12.020Z,13.15
2022-12-20T18:57:41.390Z,14.13
2022-12-20T19:00:10.569Z,12.30
2022-12-20T19:02:38.669Z,11.45
2022-12-20T19:05:07.926Z,11.25
2022-12-20T19:07:35.952Z,10.82
2022-12-20T19:10:04.214Z,14.52
2022-12-20T19:12:32.235Z,13.80
2022-12-20T19:15:01.623Z,11.57
2022-12-20T19:17:29.731Z,14.40
2022-12-20T19:19:57.789Z,9.73
2022-12-20T19:22:25.807Z,9.23
2022-12-20T19:24:55.430Z,11.40
2022-12-20T19:27:23.583Z,12.63
2022-12-20T19:29:51.801Z,10.70
2022-12-20T19:32:21.240Z,12.25
2022-12-20T19:34:49.264Z,10.40
2022-12-20T19:37:18.133Z,9.85
2022-12-20T19:39:46.267Z,11.77
2022-12-20T19:42:29.683Z,11.77
2022-12-20T19:44:57.767Z,10.98
2022-12-20T19:47:27.360Z,9.07
2022-12-20T19:49:55.402Z,11.63
2022-12-20T19:52:28.916Z,10.40
2022-12-20T19:54:57.163Z,13.00
2022-12-20T19:57:25.305Z,13.98
2022-12-20T19:59:55.961Z,12.40
2022-12-20T20:02:24.779Z,11.73
2022-12-20T20:04:54.409Z,12.15
2022-12-20T20:07:22.580Z,10.35
2022-12-20T20:09:50.607Z,11.57
2022-12-20T20:12:18.673Z,15.43
2022-12-20T20:14:46.775Z,9.43
2022-12-20T20:17:15.031Z,9.07
2022-12-20T20:19:43.912Z,14.95
2022-12-20T20:22:17.732Z,15.85
2022-12-20T20:24:49.074Z,16.38
2022-12-20T20:27:17.436Z,10.73
2022-12-20T20:29:45.453Z,11.85
2022-12-20T20:32:13.511Z,10.55
2022-12-20T20:34:41.486Z,15.70
2022-12-20T20:37:09.544Z,10.68
2022-12-20T20:39:38.910Z,9.20
2022-12-20T20:42:07.021Z,11.43
2022-12-20T20:44:35.022Z,12.60
2022-12-20T20:47:03.047Z,11.82
2022-12-20T20:49:31.045Z,12.98
2022-12-20T20:51:59.255Z,13.32
2022-12-20T20:54:27.249Z,12.50
2022-12-20T20:56:56.625Z,12.35
2022-12-20T20:59:24.911Z,9.70
2022-12-20T21:01:53.410Z,10.88
2022-12-20T21:04:21.486Z,10.80
2022-12-20T21:06:49.495Z,11.45
2022-12-20T21:09:17.534Z,9.77
2022-12-20T21:11:45.837Z,9.95
2022-12-20T21:14:16.194Z,9.77
2022-12-20T21:16:44.361Z,10.85
2022-12-20T21:19:12.499Z,8.55
2022-12-20T21:21:40.571Z,10.23
2022-12-20T21:24:08.822Z,9.05
2022-12-20T21:26:36.930Z,16.48
2022-12-20T21:29:05.180Z,11.90
2022-12-20T21:31:34.597Z,12.80
2022-12-20T21:34:02.790Z,10.80
2022-12-20T21:36:30.822Z,8.25
2022-12-20T21:39:00.266Z,10.50
2022-12-20T21:41:30.466Z,11.40
2022-12-20T21:43:59.898Z,6.53
2022-12-20T21:46:30.472Z,7.78
2022-12-20T21:49:00.517Z,7.43
2022-12-20T21:51:29.799Z,7.70
2022-12-20T21:53:59.394Z,7.05
2022-12-20T21:56:28.907Z,6.07
2022-12-20T21:58:57.435Z,6.80
2022-12-20T22:01:26.995Z,8.57
2022-12-20T22:03:56.277Z,8.52
2022-12-20T22:06:27.920Z,6.20
2022-12-20T22:08:57.552Z,6.72
2022-12-20T22:11:26.271Z,6.00
2022-12-20T22:13:55.519Z,6.45
2022-12-20T22:16:26.198Z,5.75
2022-12-20T22:18:55.946Z,5.45
2022-12-20T22:21:28.419Z,6.43
2022-12-20T22:23:57.069Z,7.75
2022-12-20T22:26:26.968Z,5.32
2022-12-20T22:28:57.044Z,6.63
2022-12-20T22:31:25.943Z,5.97
2022-12-20T22:33:55.070Z,5.47
2022-12-20T22:36:23.701Z,5.80
2022-12-20T22:38:54.342Z,5.25
2022-12-20T22:41:24.532Z,8.20
2022-12-20T22:43:52.835Z,5.68
2022-12-20T22:46:21.515Z,5.63
2022-12-20T22:48:49.750Z,6.00
2022-12-20T22:51:19.331Z,5.55
2022-12-20T22:53:48.404Z,4.97
2022-12-20T22:56:19.471Z,5.95
2022-12-20T22:58:47.522Z,4.43
2022-12-20T23:01:18.378Z,4.82
2022-12-20T23:03:47.055Z,4.43
2022-12-20T23:06:17.753Z,4.25
2022-12-20T23:08:45.884Z,4.63
2022-12-20T23:11:36.291Z,4.30
2022-12-20T23:14:22.860Z,5.18
2022-12-20T23:16:51.552Z,5.15
2022-12-20T23:19:19.703Z,3.55
2022-12-20T23:22:05.574Z,3.88
2022-12-20T23:24:33.686Z,4.05
2022-12-20T23:27:03.114Z,3.38
2022-12-20T23:29:32.322Z,3.03
2022-12-20T23:32:00.486Z,4.82
2022-12-20T23:34:28.583Z,3.30
2022-12-20T23:36:56.616Z,2.92
2022-12-20T23:39:24.614Z,3.33
2022-12-20T23:41:52.626Z,5.10
2022-12-20T23:44:22.199Z,3.95
2022-12-20T23:46:50.258Z,4.53
2022-12-20T23:49:18.477Z,3.83
2022-12-20T23:51:46.560Z,4.30
2022-12-20T23:54:15.055Z,4.45
2022-12-20T23:56:43.081Z,4.15
2022-12-20T23:59:11.072Z,4.38
